createdAt,value
2022-08-03T00:02:24.593Z,16.23
2022-08-03T00:07:27.263Z,16.22
2022-08-03T00:12:29.914Z,16.31
2022-08-03T00:17:52.640Z,16.33
2022-08-03T00:22:55.328Z,16.20
2022-08-03T00:27:58.319Z,16.50
2022-08-03T00:33:01.436Z,16.56
2022-08-03T00:38:05.323Z,16.53
2022-08-03T00:43:09.035Z,16.46
2022-08-03T00:48:29.745Z,16.39
2022-08-03T00:53:36.929Z,16.33
2022-08-03T00:58:39.596Z,16.13
2022-08-03T01:03:42.989Z,16.00
2022-08-03T01:09:09.661Z,15.79
2022-08-03T01:14:19.337Z,15.70
2022-08-03T01:19:45.028Z,15.89
2022-08-03T01:25:02.593Z,15.91
2022-08-03T01:30:10.346Z,15.89
2022-08-03T01:35:28.266Z,15.84
2022-08-03T01:40:34.478Z,15.78
2022-08-03T01:45:38.677Z,15.65
2022-08-03T01:50:42.873Z,15.82
2022-08-03T01:55:52.521Z,16.11
2022-08-03T02:01:01.708Z,16.48
2022-08-03T02:07:00.305Z,17.04
2022-08-03T02:11:30.948Z,18.79
2022-08-03T02:16:34.886Z,21.40
2022-08-03T02:21:56.510Z,22.21
2022-08-03T02:27:02.151Z,24.73
2022-08-03T02:32:05.709Z,25.97
2022-08-03T02:37:10.563Z,27.58
2022-08-03T02:42:16.738Z,26.51
2022-08-03T02:47:21.539Z,27.16
2022-08-03T02:52:28.249Z,24.43
2022-08-03T02:57:35.157Z,24.14
2022-08-03T03:02:41.301Z,24.57
2022-08-03T03:07:51.921Z,24.25
2022-08-03T03:12:57.891Z,24.05
2022-08-03T03:18:01.682Z,23.28
2022-08-03T03:23:05.784Z,23.10
2022-08-03T03:28:08.602Z,23.27
2022-08-03T03:33:12.445Z,23.47
2022-08-03T03:38:15.249Z,22.84
2022-08-03T03:43:21.438Z,23.13
2022-08-03T03:48:25.497Z,23.68
2022-08-03T03:53:28.416Z,23.58
2022-08-03T03:58:32.742Z,23.80
2022-08-03T04:03:36.385Z,23.71
2022-08-03T04:08:59.266Z,23.20
2022-08-03T04:14:20.831Z,22.93
2022-08-03T04:19:32.571Z,22.98
2022-08-03T04:24:41.740Z,23.15
2022-08-03T04:29:48.709Z,22.86
2022-08-03T04:34:52.553Z,22.61
2022-08-03T04:40:00.460Z,22.88
2022-08-03T04:45:05.243Z,22.95
2022-08-03T04:50:12.497Z,23.30
2022-08-03T04:55:33.704Z,23.05
2022-08-03T05:00:36.458Z,23.47
2022-08-03T05:05:49.957Z,23.86
2022-08-03T05:10:53.684Z,24.01
2022-08-03T05:15:56.357Z,24.08
2022-08-03T05:20:59.081Z,24.37
2022-08-03T05:26:01.903Z,24.61
2022-08-03T05:31:04.566Z,24.76
2022-08-03T05:36:07.449Z,24.76
2022-08-03T05:41:22.230Z,25.31
2022-08-03T05:46:26.644Z,25.33
2022-08-03T05:51:29.256Z,25.24
2022-08-03T05:56:31.942Z,25.45
2022-08-03T06:01:34.673Z,25.67
2022-08-03T06:06:38.029Z,25.59
2022-08-03T06:11:41.568Z,25.35
2022-08-03T06:16:44.427Z,25.34
2022-08-03T06:21:48.349Z,25.29
2022-08-03T06:26:51.223Z,25.12
2022-08-03T06:31:53.876Z,25.73
2022-08-03T06:37:01.728Z,25.66
2022-08-03T06:42:05.140Z,25.78
2022-08-03T06:47:09.113Z,25.92
2022-08-03T06:52:11.834Z,26.41
2022-08-03T06:57:34.552Z,26.14
2022-08-03T07:02:37.403Z,26.00
2022-08-03T07:07:41.343Z,26.16
2022-08-03T07:12:55.607Z,25.83
2022-08-03T07:17:59.130Z,26.12
2022-08-03T07:23:01.790Z,26.28
2022-08-03T07:28:04.798Z,26.40
2022-08-03T07:33:07.494Z,26.84
2022-08-03T07:38:10.149Z,27.38
2022-08-03T07:43:13.002Z,27.81
2022-08-03T07:48:15.959Z,28.17
2022-08-03T07:53:18.795Z,27.89
2022-08-03T07:58:24.399Z,28.21
2022-08-03T08:03:27.389Z,28.35
2022-08-03T08:08:31.610Z,28.50
2022-08-03T08:13:35.331Z,29.21
2022-08-03T08:18:38.323Z,28.90
2022-08-03T08:23:44.356Z,27.70
2022-08-03T08:28:53.083Z,27.00
2022-08-03T08:34:04.600Z,27.17
2022-08-03T08:39:07.770Z,27.33
2022-08-03T08:44:10.429Z,27.93
2022-08-03T08:49:18.805Z,28.94
2022-08-03T08:54:22.933Z,29.45
2022-08-03T08:59:26.317Z,29.08
2022-08-03T09:04:30.906Z,29.38
2022-08-03T09:10:10.582Z,29.64
2022-08-03T09:15:16.083Z,29.47
2022-08-03T09:20:21.365Z,29.29
2022-08-03T09:25:33.202Z,29.77
2022-08-03T09:30:38.181Z,29.93
2022-08-03T09:35:58.273Z,29.93
2022-08-03T09:41:01.175Z,28.97
2022-08-03T09:46:05.382Z,28.13
2022-08-03T09:51:13.479Z,28.17
2022-08-03T09:56:47.555Z,28.53
2022-08-03T10:01:50.304Z,28.82
2022-08-03T10:07:09.302Z,29.07
2022-08-03T10:12:14.293Z,29.96
2022-08-03T10:17:17.180Z,30.84
2022-08-03T10:22:23.989Z,31.22
2022-08-03T10:27:32.566Z,31.16
2022-08-03T10:32:42.113Z,31.17
2022-08-03T10:37:56.730Z,30.29
2022-08-03T10:43:10.101Z,29.72
2022-08-03T10:48:13.752Z,29.94
2022-08-03T10:53:19.991Z,30.46
2022-08-03T10:58:37.752Z,31.13
2022-08-03T11:03:56.247Z,31.21
2022-08-03T11:09:11.056Z,31.10
2022-08-03T11:14:20.180Z,31.04
2022-08-03T11:19:24.328Z,31.30
2022-08-03T11:24:51.568Z,31.47
2022-08-03T11:30:18.554Z,31.97
2022-08-03T11:35:33.748Z,32.41
2022-08-03T11:40:38.069Z,32.56
2022-08-03T11:45:57.291Z,32.42
2022-08-03T11:51:07.771Z,32.81
2022-08-03T11:56:12.716Z,32.77
2022-08-03T12:01:21.260Z,32.87
2022-08-03T12:06:25.584Z,32.03
2022-08-03T12:11:30.728Z,31.73
2022-08-03T12:16:33.838Z,32.34
2022-08-03T12:21:57.131Z,32.39
2022-08-03T12:27:00.357Z,32.27
2022-08-03T12:32:03.214Z,32.47
2022-08-03T12:37:22.234Z,32.54
2022-08-03T12:42:37.528Z,32.39
2022-08-03T12:48:00.329Z,32.06
2022-08-03T12:53:05.416Z,32.01
2022-08-03T12:58:33.823Z,31.71
2022-08-03T13:03:49.793Z,31.07
2022-08-03T13:09:06.815Z,30.97
2022-08-03T13:14:09.746Z,30.92
2022-08-03T13:19:19.859Z,31.02
2022-08-03T13:24:22.629Z,30.87
2022-08-03T13:29:25.275Z,30.92
2022-08-03T13:34:28.393Z,30.70
2022-08-03T13:39:32.536Z,30.94
2022-08-03T13:44:37.217Z,30.59
2022-08-03T13:49:39.895Z,30.26
2022-08-03T13:54:46.172Z,30.24
2022-08-03T13:59:50.952Z,29.82
2022-08-03T14:04:54.831Z,29.49
2022-08-03T14:09:57.417Z,29.22
2022-08-03T14:15:01.731Z,29.02
2022-08-03T14:20:36.918Z,28.83
2022-08-03T14:25:43.647Z,28.98
2022-08-03T14:30:56.183Z,28.99
2022-08-03T14:35:58.922Z,28.94
2022-08-03T14:41:01.825Z,28.54
2022-08-03T14:46:04.574Z,28.39
2022-08-03T14:51:07.244Z,28.42
2022-08-03T14:56:10.965Z,28.54
2022-08-03T15:02:02.196Z,28.45
2022-08-03T15:06:36.486Z,28.52
2022-08-03T15:11:39.350Z,28.56
2022-08-03T15:16:42.214Z,28.36
2022-08-03T15:21:46.853Z,28.38
2022-08-03T15:26:52.260Z,28.10
2022-08-03T15:31:55.781Z,28.11
2022-08-03T15:36:58.681Z,27.93
2022-08-03T15:42:01.296Z,28.06
2022-08-03T15:47:03.988Z,28.11
2022-08-03T15:52:06.653Z,28.03
2022-08-03T15:57:09.390Z,27.82
2022-08-03T16:02:12.040Z,27.72
2022-08-03T16:07:15.990Z,27.69
2022-08-03T16:12:18.676Z,27.63
2022-08-03T16:17:22.419Z,27.62
2022-08-03T16:22:25.777Z,27.49
2022-08-03T16:27:37.634Z,27.42
2022-08-03T16:32:51.953Z,27.19
2022-08-03T16:37:56.734Z,27.11
2022-08-03T16:42:59.676Z,27.01
2022-08-03T16:48:05.571Z,26.80
2022-08-03T16:53:16.424Z,26.52
2022-08-03T16:58:34.742Z,26.23
2022-08-03T17:04:01.343Z,26.06
2022-08-03T17:09:13.080Z,25.94
2022-08-03T17:14:22.651Z,25.74
2022-08-03T17:19:26.533Z,25.50
2022-08-03T17:24:32.245Z,25.43
2022-08-03T17:29:38.529Z,25.44
2022-08-03T17:34:50.194Z,25.24
2022-08-03T17:39:59.406Z,25.07
2022-08-03T17:45:03.790Z,25.00
2022-08-03T17:50:24.342Z,24.99
2022-08-03T17:55:54.915Z,24.84
2022-08-03T18:02:00.245Z,24.73
2022-08-03T18:06:56.808Z,24.60
2022-08-03T18:12:06.241Z,24.47
2022-08-03T18:17:19.803Z,24.29
2022-08-03T18:22:25.236Z,24.17
2022-08-03T18:27:45.626Z,24.16
2022-08-03T18:33:01.159Z,24.09
2022-08-03T18:38:18.800Z,23.98
2022-08-03T18:43:22.551Z,23.87
2022-08-03T18:49:00.385Z,23.69
2022-08-03T18:54:46.681Z,23.60
2022-08-03T19:00:16.066Z,23.54
2022-08-03T19:05:22.298Z,23.42
2022-08-03T19:10:29.444Z,23.26
2022-08-03T19:15:37.024Z,23.15
2022-08-03T19:20:46.819Z,23.03
2022-08-03T19:25:50.508Z,22.87
2022-08-03T19:30:56.805Z,22.90
2022-08-03T19:36:02.235Z,22.77
2022-08-03T19:41:07.382Z,22.52
2022-08-03T19:46:14.140Z,22.52
2022-08-03T19:51:17.084Z,22.43
2022-08-03T19:56:26.294Z,22.36
2022-08-03T20:01:30.065Z,22.11
2022-08-03T20:06:57.150Z,22.22
2022-08-03T20:12:00.362Z,22.20
2022-08-03T20:17:03.204Z,21.88
2022-08-03T20:22:14.444Z,21.93
2022-08-03T20:27:21.496Z,21.83
2022-08-03T20:32:34.380Z,21.73
2022-08-03T20:37:37.183Z,21.64
2022-08-03T20:42:41.489Z,21.50
2022-08-03T20:47:50.551Z,21.45
2022-08-03T20:52:54.906Z,21.38
2022-08-03T20:57:59.469Z,21.30
2022-08-03T21:03:03.002Z,21.30
2022-08-03T21:08:07.913Z,21.28
2022-08-03T21:13:23.580Z,21.27
2022-08-03T21:18:28.729Z,21.29
2022-08-03T21:23:35.070Z,21.23
2022-08-03T21:28:47.061Z,21.13
2022-08-03T21:33:49.707Z,21.13
2022-08-03T21:38:56.622Z,21.10
2022-08-03T21:44:01.766Z,20.94
2022-08-03T21:50:05.757Z,21.05
2022-08-03T21:54:35.879Z,20.98
2022-08-03T21:59:44.560Z,20.90
2022-08-03T22:04:55.308Z,20.80
2022-08-03T22:09:59.641Z,20.59
2022-08-03T22:15:05.496Z,20.50
2022-08-03T22:20:11.630Z,20.37
2022-08-03T22:25:15.938Z,20.22
2022-08-03T22:30:19.698Z,20.08
2022-08-03T22:35:24.816Z,20.00
2022-08-03T22:40:28.449Z,19.84
2022-08-03T22:46:07.356Z,19.80
2022-08-03T22:50:56.297Z,19.77
2022-08-03T22:55:59.322Z,19.69
2022-08-03T23:01:06.066Z,19.49
2022-08-03T23:06:08.974Z,19.47
2022-08-03T23:11:12.760Z,19.44
2022-08-03T23:16:16.707Z,19.25
2022-08-03T23:22:00.186Z,19.15
2022-08-03T23:26:56.526Z,19.00
2022-08-03T23:32:01.545Z,19.00
2022-08-03T23:37:05.944Z,18.97
2022-08-03T23:42:09.901Z,19.01
2022-08-03T23:47:14.079Z,18.91
2022-08-03T23:52:28.581Z,18.93
2022-08-03T23:57:52.097Z,18.95
